Time;durP1;ratioP1;P1;durP2;ratioP2;P2;SDS_P1;SDS_P2;PMS_P1;PMS_P2;Temp;Humidity;BMP_temperature;BMP_pressure;BME280_temperature;BME280_humidity;BME280_pressure;Samples;Min_cycle;Max_cycle;Signal;HPM_P1;HPM_P2
2024/01/14 00:00:30;;;;;;;36.45;32.88;;;;;;;-4.71;66.95;94815.81;5078024;28;20250;-66
2024/01/14 00:02:58;;;;;;;36.92;33.33;;;;;;;-4.68;66.97;94809.91;5078427;28;20200;-66
2024/01/14 00:05:25;;;;;;;34.83;31.48;;;;;;;-4.69;67.01;94806.38;5078516;28;20196;-66
2024/01/14 00:07:53;;;;;;;35.20;31.80;;;;;;;-4.68;66.58;94816.09;5077491;28;20234;-65
2024/01/14 00:10:20;;;;;;;36.25;32.80;;;;;;;-4.69;66.71;94814.47;5077481;28;20685;-65
2024/01/14 00:12:47;;;;;;;37.30;33.60;;;;;;;-4.70;67.05;94814.75;5077803;28;20200;-65
2024/01/14 00:15:17;;;;;;;38.47;34.67;;;;;;;-4.76;66.98;94816.59;5094416;28;20209;-65
2024/01/14 00:17:45;;;;;;;38.25;34.33;;;;;;;-4.78;67.35;94821.44;5078272;28;20282;-65
2024/01/14 00:20:14;;;;;;;38.33;34.33;;;;;;;-4.76;67.31;94811.22;5077750;28;20211;-65
2024/01/14 00:22:41;;;;;;;36.55;33.05;;;;;;;-4.81;67.11;94807.69;5077995;28;20197;-65
2024/01/14 00:25:08;;;;;;;36.38;32.88;;;;;;;-4.81;67.40;94805.81;5077981;28;20219;-65
2024/01/14 00:27:35;;;;;;;39.00;35.20;;;;;;;-4.83;67.48;94810.63;5077542;28;20230;-65
2024/01/14 00:30:03;;;;;;;43.22;38.92;;;;;;;-4.89;66.84;94809.81;5077863;28;20192;-65
2024/01/14 00:32:30;;;;;;;46.20;41.30;;;;;;;-5.01;67.20;94811.94;5073885;28;20233;-65
2024/01/14 00:34:57;;;;;;;47.15;42.55;;;;;;;-5.09;67.60;94807.81;5057343;28;20197;-65
2024/01/14 00:37:26;;;;;;;47.25;42.58;;;;;;;-5.08;67.77;94795.22;5074763;28;20295;-65
2024/01/14 00:39:53;;;;;;;41.38;37.28;;;;;;;-5.02;67.38;94809.47;5074034;28;20200;-65
2024/01/14 00:42:19;;;;;;;40.28;36.17;;;;;;;-4.95;67.66;94808.16;5057988;28;20200;-65
2024/01/14 00:44:46;;;;;;;39.55;35.60;;;;;;;-4.91;67.43;94800.38;5057061;28;20205;-65
2024/01/14 00:47:13;;;;;;;42.85;38.65;;;;;;;-4.96;67.58;94811.94;5057981;28;20205;-65
2024/01/14 00:49:40;;;;;;;44.13;39.75;;;;;;;-4.99;67.43;94815.16;5057550;28;20221;-65
2024/01/14 00:52:07;;;;;;;43.50;39.13;;;;;;;-5.05;67.02;94797.34;5056973;28;20231;-65
2024/01/14 00:54:35;;;;;;;42.55;38.35;;;;;;;-5.06;67.10;94798.44;5074623;28;20251;-65
2024/01/14 00:57:04;;;;;;;36.22;32.70;;;;;;;-5.02;66.91;94802.22;5057456;28;20576;-65
2024/01/14 00:59:31;;;;;;;35.25;31.83;;;;;;;-5.00;67.00;94788.53;5057254;28;20201;-65
2024/01/14 01:01:58;;;;;;;35.88;32.25;;;;;;;-4.98;66.56;94791.75;5056854;28;20205;-65
2024/01/14 01:04:24;;;;;;;35.38;32.00;;;;;;;-5.00;66.53;94792.03;5057756;28;20254;-65
2024/01/14 01:06:52;;;;;;;38.65;34.85;;;;;;;-4.99;66.78;94790.13;5074808;28;20198;-65
2024/01/14 01:09:18;;;;;;;40.20;36.20;;;;;;;-5.09;66.92;94782.81;5057593;28;20232;-66
2024/01/14 01:11:47;;;;;;;39.00;35.13;;;;;;;-5.16;66.64;94791.13;5074723;28;20205;-66
2024/01/14 01:14:15;;;;;;;37.97;34.28;;;;;;;-5.18;67.26;94795.16;5057074;28;20246;-66
2024/01/14 01:16:42;;;;;;;33.72;30.42;;;;;;;-5.15;67.84;94779.31;5057833;28;20201;-66
2024/01/14 01:19:09;;;;;;;34.17;30.85;;;;;;;-5.14;67.08;94774.75;5057597;28;20282;-65
2024/01/14 01:21:36;;;;;;;39.03;35.33;;;;;;;-5.16;67.52;94780.38;5074295;28;20500;-66
2024/01/14 01:24:03;;;;;;;39.40;35.60;;;;;;;-5.25;67.20;94778.44;5056831;28;20201;-66
2024/01/14 01:26:30;;;;;;;37.20;33.55;;;;;;;-5.25;66.92;94776.56;5057022;28;20205;-66
2024/01/14 01:28:59;;;;;;;33.55;30.40;;;;;;;-5.19;67.51;94774.69;5074369;28;20228;-66
2024/01/14 01:31:26;;;;;;;34.97;31.65;;;;;;;-5.17;66.73;94759.94;5057230;28;20233;-66
2024/01/14 01:33:53;;;;;;;33.10;29.95;;;;;;;-5.18;66.90;94760.22;5074126;28;20567;-66
2024/01/14 01:36:20;;;;;;;33.47;30.15;;;;;;;-5.19;66.48;94755.88;5073875;28;20217;-66
2024/01/14 01:38:47;;;;;;;33.88;30.52;;;;;;;-5.19;66.87;94758.56;5074321;28;20223;-66
2024/01/14 01:41:14;;;;;;;31.45;28.35;;;;;;;-5.19;66.52;94753.19;5057353;28;20559;-66
2024/01/14 01:43:41;;;;;;;33.17;29.88;;;;;;;-5.17;66.85;94753.75;5057753;28;20201;-66
2024/01/14 01:46:10;;;;;;;34.22;31.05;;;;;;;-5.22;66.58;94751.06;5057315;28;20235;-65
2024/01/14 01:48:37;;;;;;;33.53;30.23;;;;;;;-5.22;66.86;94748.34;5059289;28;20252;-65
2024/01/14 01:51:05;;;;;;;31.88;28.77;;;;;;;-5.23;66.40;94750.25;5076683;28;20197;-65
2024/01/14 01:53:32;;;;;;;32.22;29.02;;;;;;;-5.21;66.73;94747.28;5060609;28;20213;-66
2024/01/14 01:56:00;;;;;;;32.83;29.58;;;;;;;-5.18;66.63;94739.50;5060435;28;20275;-65
2024/01/14 01:58:27;;;;;;;32.10;29.05;;;;;;;-5.19;66.49;94735.19;5060526;28;20259;-65
2024/01/14 02:00:54;;;;;;;32.30;29.02;;;;;;;-5.21;66.68;94729.25;5060460;28;20264;-65
2024/01/14 02:03:23;;;;;;;31.83;28.60;;;;;;;-5.22;66.70;94732.22;5060734;28;20265;-66
2024/01/14 02:05:53;;;;;;;32.13;28.92;;;;;;;-5.24;66.69;94729.78;5077683;28;20263;-66
2024/01/14 02:08:19;;;;;;;33.33;30.05;;;;;;;-5.25;66.93;94719.31;5060390;28;20251;-65
2024/01/14 02:10:46;;;;;;;33.42;30.05;;;;;;;-5.31;66.67;94721.16;5060063;28;20263;-65
2024/01/14 02:13:13;;;;;;;33.20;29.88;;;;;;;-5.33;66.89;94728.69;5060220;28;20209;-65
2024/01/14 02:15:40;;;;;;;33.67;30.30;;;;;;;-5.34;66.96;94724.34;5059614;28;20251;-65
2024/01/14 02:18:07;;;;;;;31.00;27.90;;;;;;;-5.40;66.85;94728.91;5059795;28;20232;-65
2024/01/14 02:20:36;;;;;;;30.95;28.02;;;;;;;-5.51;66.51;94731.81;5076482;28;20267;-65
2024/01/14 02:23:04;;;;;;;33.88;30.42;;;;;;;-5.57;66.97;94730.97;5060030;28;20251;-65
2024/01/14 02:25:33;;;;;;;32.17;29.08;;;;;;;-5.55;66.72;94736.91;5060510;28;20519;-65
2024/01/14 02:28:00;;;;;;;31.25;28.02;;;;;;;-5.53;66.71;94725.88;5059352;28;20208;-65
2024/01/14 02:30:27;;;;;;;31.25;28.25;;;;;;;-5.52;66.85;94714.84;5076880;28;20278;-65
2024/01/14 02:32:55;;;;;;;31.42;28.25;;;;;;;-5.53;66.55;94731.25;5059129;28;20294;-65
2024/01/14 02:35:22;;;;;;;30.63;27.42;;;;;;;-5.51;66.86;94729.94;5059329;28;20197;-65
2024/01/14 02:37:49;;;;;;;31.23;28.13;;;;;;;-5.47;67.14;94717.59;5059521;28;20205;-65
2024/01/14 02:40:16;;;;;;;31.40;28.15;;;;;;;-5.47;66.31;94712.22;5060019;28;20193;-65
2024/01/14 02:42:45;;;;;;;31.35;28.15;;;;;;;-5.46;66.96;94710.31;5059087;28;20617;-65
2024/01/14 02:45:12;;;;;;;31.92;28.63;;;;;;;-5.44;66.87;94711.69;5059649;28;20266;-65
2024/01/14 02:47:39;;;;;;;31.90;28.73;;;;;;;-5.54;67.00;94719.69;5060170;28;20238;-65
2024/01/14 02:50:06;;;;;;;32.15;29.05;;;;;;;-5.64;66.57;94708.88;5059513;28;20216;-65
2024/01/14 02:52:33;;;;;;;33.25;29.85;;;;;;;-5.73;66.93;94713.16;5059710;28;20588;-65
2024/01/14 02:55:00;;;;;;;32.92;29.67;;;;;;;-5.75;67.33;94710.72;5076084;28;20250;-65
2024/01/14 02:57:27;;;;;;;32.10;28.92;;;;;;;-5.74;67.67;94706.94;5058911;28;20215;-65
2024/01/14 02:59:56;;;;;;;32.80;29.67;;;;;;;-5.64;67.29;94707.00;5059666;28;20197;-65
2024/01/14 03:02:23;;;;;;;32.50;29.17;;;;;;;-5.65;67.30;94710.78;5058765;28;20193;-65
2024/01/14 03:04:50;;;;;;;30.10;27.27;;;;;;;-5.68;68.22;94705.09;5059531;28;20205;-65
2024/01/14 03:07:17;;;;;;;31.63;28.50;;;;;;;-5.69;67.59;94706.19;5059253;28;20258;-65
2024/01/14 03:09:44;;;;;;;31.88;28.88;;;;;;;-5.70;67.71;94712.59;5076138;28;20644;-65
2024/01/14 03:12:10;;;;;;;30.95;27.98;;;;;;;-5.73;67.79;94705.09;5059199;28;20323;-65
2024/01/14 03:14:37;;;;;;;30.95;27.95;;;;;;;-5.74;67.65;94700.75;5058580;28;20204;-65
2024/01/14 03:17:06;;;;;;;30.52;27.67;;;;;;;-5.75;67.71;94697.28;5058744;28;20204;-65
2024/01/14 03:19:33;;;;;;;30.70;27.83;;;;;;;-5.78;67.58;94699.66;5058877;28;20490;-65
2024/01/14 03:22:00;;;;;;;32.25;29.20;;;;;;;-5.80;67.80;94697.25;5059267;28;20205;-65
2024/01/14 03:24:27;;;;;;;30.90;27.83;;;;;;;-5.87;67.81;94697.47;5058252;28;20193;-65
2024/01/14 03:26:54;;;;;;;32.65;29.45;;;;;;;-5.90;67.66;94703.38;5059039;28;20193;-65
2024/01/14 03:29:21;;;;;;;33.90;30.45;;;;;;;-5.90;68.09;94694.50;5058742;28;20283;-65
2024/01/14 03:31:48;;;;;;;31.50;28.35;;;;;;;-5.95;67.59;94695.31;5058394;28;20228;-65
2024/01/14 03:34:16;;;;;;;33.15;29.85;;;;;;;-5.98;67.71;94687.78;5074677;28;20201;-65
2024/01/14 03:36:43;;;;;;;32.40;29.33;;;;;;;-5.95;67.92;94689.16;5075534;28;20251;-65
2024/01/14 03:39:10;;;;;;;32.17;29.08;;;;;;;-5.91;67.46;94693.69;5058078;28;20682;-65
2024/01/14 03:41:37;;;;;;;31.67;28.67;;;;;;;-5.85;67.90;94703.38;5058857;28;20197;-65
2024/01/14 03:44:04;;;;;;;33.70;30.45;;;;;;;-5.90;67.80;94706.06;5057909;28;20246;-65
2024/01/14 03:46:31;;;;;;;34.97;31.67;;;;;;;-5.90;67.42;94698.00;5058688;28;20235;-65
2024/01/14 03:48:58;;;;;;;35.30;31.90;;;;;;;-5.87;67.68;94704.72;5075275;28;20220;-66
2024/01/14 03:51:27;;;;;;;37.22;33.72;;;;;;;-5.81;67.70;94711.72;5058308;28;20254;-65
2024/01/14 03:53:53;;;;;;;33.50;30.38;;;;;;;-5.79;67.43;94717.66;5058910;28;20185;-65
2024/01/14 03:56:20;;;;;;;31.67;28.75;;;;;;;-5.84;67.02;94725.72;5075198;28;20201;-65
2024/01/14 03:58:47;;;;;;;33.53;30.33;;;;;;;-5.86;67.31;94730.50;5058248;28;20205;-65
2024/01/14 04:01:18;;;;;;;33.60;30.38;;;;;;;-5.91;67.86;94733.19;5058708;28;20201;-66
2024/01/14 04:03:45;;;;;;;32.63;29.50;;;;;;;-5.91;68.13;94730.50;5057628;28;20201;-66
2024/01/14 04:06:12;;;;;;;30.95;28.30;;;;;;;-5.83;68.29;94712.00;5075102;28;20227;-66
2024/01/14 04:08:40;;;;;;;28.48;25.88;;;;;;;-5.78;68.49;94715.78;5074179;28;20686;-66
2024/01/14 04:11:08;;;;;;;28.77;26.17;;;;;;;-5.78;68.23;94723.84;5049825;28;20216;-65
2024/01/14 04:13:35;;;;;;;29.15;26.35;;;;;;;-5.71;67.69;94722.56;5057652;28;20213;-65
2024/01/14 04:16:02;;;;;;;31.02;28.13;;;;;;;-5.68;68.16;94713.97;5057951;28;20201;-65
2024/01/14 04:18:29;;;;;;;32.55;29.58;;;;;;;-5.77;67.15;94718.22;5057414;28;20193;-66
2024/01/14 04:20:56;;;;;;;33.83;30.52;;;;;;;-5.88;67.43;94714.66;5057540;28;20203;-66
2024/01/14 04:23:23;;;;;;;33.53;30.33;;;;;;;-5.97;67.16;94702.81;5058216;28;20208;-65
2024/01/14 04:25:51;;;;;;;32.35;29.42;;;;;;;-6.04;67.59;94706.78;5074897;28;20201;-66
2024/01/14 04:28:18;;;;;;;32.35;29.35;;;;;;;-6.07;67.92;94700.06;5058088;28;20255;-66
2024/01/14 04:30:45;;;;;;;31.08;28.35;;;;;;;-6.10;67.59;94698.72;5057439;28;20256;-66
2024/01/14 04:33:12;;;;;;;30.17;27.42;;;;;;;-6.17;67.78;94698.13;5057804;28;20569;-66
2024/01/14 04:35:39;;;;;;;31.98;29.08;;;;;;;-6.22;67.84;94706.13;5074591;28;20270;-66
2024/01/14 04:38:06;;;;;;;32.38;29.50;;;;;;;-6.24;68.35;94702.09;5075079;28;20200;-66
2024/01/14 04:40:33;;;;;;;31.75;28.77;;;;;;;-6.20;68.48;94705.88;5057723;28;20201;-66
2024/01/14 04:43:01;;;;;;;31.55;28.60;;;;;;;-6.17;68.13;94708.03;5057623;28;20216;-66
2024/01/14 04:45:28;;;;;;;31.30;28.40;;;;;;;-6.19;67.98;94702.13;5058318;28;20232;-66
2024/01/14 04:47:55;;;;;;;31.75;28.73;;;;;;;-6.14;68.33;94702.94;5073876;28;20197;-66
2024/01/14 04:50:22;;;;;;;31.02;28.25;;;;;;;-6.10;68.26;94703.25;5074378;28;20224;-65
2024/01/14 04:52:50;;;;;;;28.77;26.27;;;;;;;-6.06;68.25;94707.06;5058006;28;20246;-66
2024/01/14 04:55:16;;;;;;;28.08;25.58;;;;;;;-6.01;68.60;94717.03;5074272;28;20251;-67
2024/01/14 04:57:44;;;;;;;26.30;23.80;;;;;;;-5.98;68.11;94713.81;5073951;28;20201;-67
2024/01/14 05:00:14;;;;;;;30.58;27.67;;;;;;;-6.09;67.84;94708.38;5075199;28;20224;-68
2024/01/14 05:02:41;;;;;;;29.15;26.48;;;;;;;-6.13;67.65;94711.84;5058075;28;20627;-68
2024/01/14 05:05:08;;;;;;;26.80;24.35;;;;;;;-6.14;68.70;94705.63;5066790;28;20250;-68
2024/01/14 05:07:34;;;;;;;28.40;25.77;;;;;;;-6.09;68.60;94707.56;5056921;28;20197;-67
2024/01/14 05:10:01;;;;;;;29.35;26.65;;;;;;;-6.12;67.94;94711.56;5073590;28;20286;-67
2024/01/14 05:12:27;;;;;;;29.67;26.80;;;;;;;-6.08;67.82;94709.19;5058080;28;20212;-68
2024/01/14 05:14:54;;;;;;;28.40;25.92;;;;;;;-6.13;67.87;94712.66;5057464;28;20258;-68
2024/01/14 05:17:23;;;;;;;28.60;26.10;;;;;;;-6.13;68.22;94703.78;5074095;28;20224;-68
2024/01/14 05:19:50;;;;;;;29.65;26.95;;;;;;;-6.18;67.89;94709.09;5057287;28;20266;-67
2024/01/14 05:22:17;;;;;;;28.42;25.80;;;;;;;-6.18;68.11;94706.41;5059403;28;20197;-67
2024/01/14 05:24:44;;;;;;;27.27;24.77;;;;;;;-6.18;68.27;94701.84;5061521;28;20213;-67
2024/01/14 05:27:12;;;;;;;27.17;24.77;;;;;;;-6.11;68.70;94698.94;5060553;28;20228;-67
2024/01/14 05:29:39;;;;;;;31.23;28.42;;;;;;;-6.09;68.43;94697.63;5061174;28;20316;-67
2024/01/14 05:32:06;;;;;;;31.30;28.33;;;;;;;-6.17;68.33;94694.59;5077235;28;20224;-67
2024/01/14 05:34:35;;;;;;;33.20;29.98;;;;;;;-6.30;67.87;94701.22;5077111;28;20197;-67
2024/01/14 05:37:02;;;;;;;34.38;31.20;;;;;;;-6.31;67.77;94702.31;5077959;28;20198;-67
2024/01/14 05:39:30;;;;;;;34.67;31.48;;;;;;;-6.35;67.83;94699.31;5060343;28;20227;-67
2024/01/14 05:41:57;;;;;;;35.40;32.10;;;;;;;-6.36;67.70;94700.38;5061426;28;20221;-67
2024/01/14 05:44:24;;;;;;;35.15;32.00;;;;;;;-6.41;68.08;94697.66;5078114;28;20223;-67
2024/01/14 05:46:51;;;;;;;36.05;32.70;;;;;;;-6.40;68.50;94696.59;5060182;28;20217;-67
2024/01/14 05:49:18;;;;;;;34.58;31.27;;;;;;;-6.35;68.40;94701.22;5060379;28;20585;-67
2024/01/14 05:51:46;;;;;;;34.17;31.02;;;;;;;-6.32;68.46;94698.81;5076691;28;20197;-67
2024/01/14 05:54:13;;;;;;;34.33;31.00;;;;;;;-6.30;68.51;94706.59;5060040;28;20201;-67
2024/01/14 05:56:40;;;;;;;33.53;30.25;;;;;;;-6.26;69.08;94696.16;5061018;28;20189;-67
2024/01/14 05:59:07;;;;;;;34.13;30.83;;;;;;;-6.24;68.52;94707.47;5060232;28;20197;-67
2024/01/14 06:01:34;;;;;;;34.30;31.00;;;;;;;-6.22;68.49;94697.25;5060217;28;20567;-67
2024/01/14 06:04:01;;;;;;;32.15;29.05;;;;;;;-6.21;68.27;94706.94;5077335;28;20201;-67
2024/01/14 06:06:28;;;;;;;32.92;29.83;;;;;;;-6.17;68.65;94700.81;5077678;28;20201;-67
2024/01/14 06:08:57;;;;;;;31.98;28.95;;;;;;;-6.16;68.34;94702.41;5060380;28;20205;-66
2024/01/14 06:11:23;;;;;;;33.85;30.63;;;;;;;-6.16;68.22;94702.41;5060538;28;20316;-66
2024/01/14 06:13:50;;;;;;;34.83;31.45;;;;;;;-6.16;68.54;94697.06;5059740;28;20263;-65
2024/01/14 06:16:17;;;;;;;31.85;28.95;;;;;;;-6.12;68.47;94700.84;5077074;28;20246;-65
2024/01/14 06:18:45;;;;;;;33.00;29.90;;;;;;;-6.03;69.19;94692.28;5060204;28;20561;-65
2024/01/14 06:21:12;;;;;;;35.88;32.28;;;;;;;-5.97;68.35;94686.69;5060332;28;20197;-65
2024/01/14 06:23:39;;;;;;;35.85;32.25;;;;;;;-5.97;68.61;94689.38;5059923;28;20215;-65
2024/01/14 06:26:07;;;;;;;39.22;35.58;;;;;;;-5.98;68.30;94686.97;5077475;28;20201;-65
2024/01/14 06:28:34;;;;;;;38.97;35.35;;;;;;;-6.08;68.19;94685.00;5076155;28;20254;-65
2024/01/14 06:31:01;;;;;;;36.25;32.83;;;;;;;-6.08;68.14;94682.34;5059842;28;20652;-65
2024/01/14 06:33:28;;;;;;;36.38;33.05;;;;;;;-6.07;68.60;94687.44;5075942;28;20655;-65
2024/01/14 06:35:55;;;;;;;37.72;34.03;;;;;;;-6.01;68.43;94684.78;5059167;28;20655;-67
2024/01/14 06:38:22;;;;;;;35.10;31.90;;;;;;;-6.00;68.74;94678.34;5059914;28;20205;-67
2024/01/14 06:40:49;;;;;;;36.42;32.92;;;;;;;-5.91;68.67;94682.97;5076760;28;20209;-68
2024/01/14 06:43:17;;;;;;;35.97;32.53;;;;;;;-5.87;68.70;94677.88;5075851;28;20258;-68
2024/01/14 06:45:44;;;;;;;36.15;32.78;;;;;;;-5.84;68.30;94685.41;5059323;28;20616;-68
2024/01/14 06:48:11;;;;;;;37.15;33.65;;;;;;;-5.76;68.57;94671.50;5076924;28;20219;-69
2024/01/14 06:50:38;;;;;;;36.40;32.90;;;;;;;-5.70;68.69;94673.13;5059477;28;20224;-69
2024/01/14 06:53:05;;;;;;;36.22;32.78;;;;;;;-5.61;68.49;94676.94;5075977;28;20201;-69
2024/01/14 06:55:32;;;;;;;36.78;33.25;;;;;;;-5.54;68.32;94670.53;5059787;28;20201;-69
2024/01/14 06:57:59;;;;;;;39.75;36.15;;;;;;;-5.44;68.36;94657.94;5075766;28;20205;-69
2024/01/14 07:00:28;;;;;;;39.35;35.55;;;;;;;-5.35;68.77;94663.59;5059633;28;20212;-69
2024/01/14 07:02:55;;;;;;;41.28;37.47;;;;;;;-5.23;69.13;94666.06;5075598;28;20427;-72
2024/01/14 07:05:22;;;;;;;39.05;35.45;;;;;;;-5.11;68.89;94661.28;5059779;28;20201;-68
2024/01/14 07:07:49;;;;;;;38.33;34.78;;;;;;;-5.05;68.71;94662.09;5059494;28;20209;-68
2024/01/14 07:10:16;;;;;;;37.92;34.25;;;;;;;-5.04;68.41;94656.44;5059133;28;20217;-68
2024/01/14 07:12:43;;;;;;;36.95;33.47;;;;;;;-4.97;68.53;94657.00;5059437;28;20200;-68
2024/01/14 07:15:10;;;;;;;35.65;32.33;;;;;;;-4.85;68.40;94662.13;5075197;28;20193;-68
2024/01/14 07:17:38;;;;;;;38.00;34.40;;;;;;;-4.78;68.56;94664.56;5058746;28;20201;-68
2024/01/14 07:20:07;;;;;;;39.72;35.95;;;;;;;-4.71;68.67;94657.06;5058610;28;20205;-68
2024/01/14 07:22:34;;;;;;;40.42;36.63;;;;;;;-4.61;68.78;94668.63;5058912;28;20208;-68
2024/01/14 07:25:01;;;;;;;40.13;36.33;;;;;;;-4.49;68.69;94663.00;5058835;28;20255;-68
2024/01/14 07:27:28;;;;;;;40.28;36.47;;;;;;;-4.43;68.44;94672.69;5058992;28;20258;-68
2024/01/14 07:29:55;;;;;;;41.15;37.25;;;;;;;-4.31;68.05;94674.31;5059256;28;20509;-68
2024/01/14 07:32:22;;;;;;;42.95;38.63;;;;;;;-4.14;68.76;94686.44;5058068;28;20233;-68
2024/01/14 07:34:50;;;;;;;48.75;44.10;;;;;;;-4.00;67.74;94685.84;5074861;28;20248;-68
2024/01/14 07:37:17;;;;;;;62.70;56.90;;;;;;;-3.88;67.28;94683.72;5075918;28;20206;-68
2024/01/14 07:39:45;;;;;;;66.75;60.55;;;;;;;-3.78;67.02;94674.78;5058897;28;20193;-68
2024/01/14 07:42:12;;;;;;;77.35;70.22;;;;;;;-3.67;66.52;94677.22;5058484;28;20263;-68
2024/01/14 07:44:39;;;;;;;82.70;75.20;;;;;;;-3.51;66.44;94669.88;5057894;28;20193;-68
2024/01/14 07:47:07;;;;;;;76.75;69.65;;;;;;;-3.33;65.57;94665.78;5058768;28;20224;-68
2024/01/14 07:49:35;;;;;;;75.40;68.65;;;;;;;-3.26;64.87;94668.19;5058047;28;20201;-68
2024/01/14 07:52:05;;;;;;;72.80;66.00;;;;;;;-3.20;64.64;94664.34;5074991;28;20585;-68
2024/01/14 07:54:32;;;;;;;76.50;69.70;;;;;;;-3.18;64.47;94654.13;5057708;28;20621;-68
2024/01/14 07:56:59;;;;;;;72.90;66.10;;;;;;;-3.13;64.56;94658.66;5074442;28;20205;-68
2024/01/14 07:59:25;;;;;;;73.93;67.13;;;;;;;-2.99;64.51;94649.69;5058552;28;20201;-68
2024/01/14 08:01:52;;;;;;;71.13;64.65;;;;;;;-2.90;64.69;94644.53;5074352;28;20612;-68
2024/01/14 08:04:19;;;;;;;69.97;63.38;;;;;;;-2.82;64.37;94646.63;5058595;28;20246;-67
2024/01/14 08:06:46;;;;;;;69.22;62.72;;;;;;;-2.67;64.53;94637.63;5057691;28;20263;-67
2024/01/14 08:09:15;;;;;;;63.38;56.85;;;;;;;-2.53;64.01;94627.81;5058660;28;20197;-70
2024/01/14 08:11:42;;;;;;;63.88;57.15;;;;;;;-2.35;63.93;94622.81;5075614;28;20252;-69
2024/01/14 08:14:09;;;;;;;57.42;51.65;;;;;;;-2.20;63.29;94628.09;5057471;28;20204;-69
2024/01/14 08:16:36;;;;;;;60.88;54.78;;;;;;;-2.07;62.50;94626.63;5057740;28;20208;-69
2024/01/14 08:19:03;;;;;;;48.08;42.92;;;;;;;-1.94;62.38;94642.19;5057960;28;20239;-69
2024/01/14 08:21:30;;;;;;;42.00;38.08;;;;;;;-1.77;61.85;94639.06;5074868;28;20209;-69
2024/01/14 08:23:57;;;;;;;39.85;36.10;;;;;;;-1.66;61.43;94627.03;5058099;28;20197;-69
2024/01/14 08:26:26;;;;;;;41.03;37.20;;;;;;;-1.51;60.94;94631.47;5057825;28;20263;-69
2024/01/14 08:28:53;;;;;;;43.38;39.00;;;;;;;-1.28;60.89;94637.97;5057680;28;20197;-70
2024/01/14 08:31:20;;;;;;;56.25;50.60;;;;;;;-1.13;60.34;94636.97;5050927;28;20291;-70
2024/01/14 08:33:47;;;;;;;59.17;53.38;;;;;;;-1.07;60.13;94638.53;5037429;28;20251;-72
2024/01/14 08:36:14;;;;;;;62.50;56.40;;;;;;;-1.04;59.88;94644.16;5037219;28;20452;-71
2024/01/14 08:38:41;;;;;;;55.92;50.42;;;;;;;-0.95;59.64;94640.81;5055188;28;20190;-71
2024/01/14 08:41:09;;;;;;;52.40;47.30;;;;;;;-0.80;59.16;94635.19;5038494;28;20194;-70
2024/01/14 08:43:37;;;;;;;50.03;45.35;;;;;;;-0.62;58.05;94633.59;5038284;28;20194;-70
2024/01/14 08:46:05;;;;;;;51.10;46.30;;;;;;;-0.58;57.33;94634.59;5053981;28;20228;-70
2024/01/14 08:48:32;;;;;;;50.40;45.80;;;;;;;-0.51;57.08;94630.44;5053472;28;20441;-70
2024/01/14 08:51:01;;;;;;;43.47;39.28;;;;;;;-0.44;56.21;94626.53;5037171;28;20213;-67
2024/01/14 08:53:29;;;;;;;39.83;36.15;;;;;;;-0.27;56.64;94633.06;5055015;28;20293;-68
2024/01/14 08:55:56;;;;;;;32.38;29.30;;;;;;;-0.09;55.84;94625.97;5037916;28;20190;-68
2024/01/14 08:58:23;;;;;;;29.23;26.48;;;;;;;0.14;55.86;94635.09;5042090;28;20205;-68
2024/01/14 09:00:52;;;;;;;25.20;22.90;;;;;;;0.35;55.16;94621.16;5042010;28;20668;-68
2024/01/14 09:03:19;;;;;;;24.95;22.63;;;;;;;0.44;53.38;94614.75;5041639;28;20285;-68
2024/01/14 09:05:46;;;;;;;25.30;22.90;;;;;;;0.42;53.47;94622.38;5041935;28;20194;-68
2024/01/14 09:08:13;;;;;;;25.30;23.00;;;;;;;0.55;52.97;94620.81;5041476;28;20644;-68
2024/01/14 09:10:40;;;;;;;26.77;24.23;;;;;;;0.74;52.37;94617.19;5042046;28;20213;-68
2024/01/14 09:13:07;;;;;;;28.13;25.50;;;;;;;0.68;51.90;94616.47;5041571;28;20204;-68
2024/01/14 09:15:35;;;;;;;34.75;31.52;;;;;;;0.77;52.15;94622.81;5057484;28;20206;-68
2024/01/14 09:18:04;;;;;;;37.47;34.00;;;;;;;0.79;51.49;94619.78;5041097;28;20610;-68
2024/01/14 09:20:30;;;;;;;40.53;36.53;;;;;;;0.92;52.64;94611.63;5041469;28;20279;-68
2024/01/14 09:22:57;;;;;;;44.15;39.92;;;;;;;1.05;51.73;94615.44;5041347;28;20202;-68
2024/01/14 09:25:24;;;;;;;44.83;40.53;;;;;;;1.15;51.46;94614.41;5057328;28;20194;-68
2024/01/14 09:27:52;;;;;;;48.30;43.63;;;;;;;1.31;51.75;94615.72;5040896;28;20209;-68
2024/01/14 09:30:19;;;;;;;48.53;43.80;;;;;;;1.51;51.43;94606.28;5041130;28;20206;-68
2024/01/14 09:32:48;;;;;;;51.40;46.15;;;;;;;1.67;51.36;94595.84;5058403;28;20240;-68
2024/01/14 09:35:17;;;;;;;56.30;50.78;;;;;;;1.85;51.36;94594.06;5061292;28;20195;-68
2024/01/14 09:37:44;;;;;;;52.35;47.13;;;;;;;1.91;50.46;94590.13;5077838;28;20189;-68
2024/01/14 09:40:11;;;;;;;48.17;43.42;;;;;;;1.92;50.01;94589.81;5077398;28;20259;-68
2024/01/14 09:42:40;;;;;;;53.83;48.67;;;;;;;2.08;50.16;94587.50;5077831;28;20201;-68
2024/01/14 09:45:08;;;;;;;59.05;53.05;;;;;;;2.35;50.38;94593.91;5076835;28;20629;-68
2024/01/14 09:47:35;;;;;;;56.03;50.28;;;;;;;2.48;49.08;94581.31;5077999;28;20306;-68
2024/01/14 09:50:03;;;;;;;55.05;49.50;;;;;;;2.74;49.13;94576.78;5060483;28;20255;-68
2024/01/14 09:52:32;;;;;;;55.10;49.60;;;;;;;3.03;48.44;94578.16;5072175;28;20313;-68
2024/01/14 09:54:59;;;;;;;55.28;49.95;;;;;;;3.23;47.72;94571.28;5077887;28;20296;-68
2024/01/14 09:57:30;;;;;;;53.58;48.42;;;;;;;3.08;46.97;94562.44;5060655;28;20223;-68
2024/01/14 09:59:57;;;;;;;54.05;48.50;;;;;;;3.00;46.74;94565.94;5076757;28;20288;-68
2024/01/14 10:02:25;;;;;;;50.88;45.92;;;;;;;3.14;47.27;94561.16;5060281;28;20286;-68
2024/01/14 10:04:52;;;;;;;45.95;41.42;;;;;;;3.54;45.86;94557.53;5076656;28;20209;-68
2024/01/14 10:07:19;;;;;;;45.28;41.17;;;;;;;3.99;45.18;94568.06;5059280;28;20600;-68
2024/01/14 10:09:47;;;;;;;48.35;43.60;;;;;;;4.02;44.17;94562.78;5060134;28;20215;-67
2024/01/14 10:12:15;;;;;;;44.97;40.40;;;;;;;3.95;43.30;94545.28;5059799;28;20220;-67
2024/01/14 10:14:42;;;;;;;45.38;40.83;;;;;;;3.80;44.36;94538.41;5060000;28;20676;-68
2024/01/14 10:17:09;;;;;;;43.88;39.33;;;;;;;4.23;44.26;94543.78;5060072;28;20197;-68
2024/01/14 10:19:37;;;;;;;44.13;39.83;;;;;;;4.37;43.38;94540.06;5077133;28;20213;-68
2024/01/14 10:22:04;;;;;;;43.80;39.28;;;;;;;4.32;42.93;94547.31;5060080;28;20263;-68
2024/01/14 10:24:31;;;;;;;44.85;40.47;;;;;;;4.34;42.75;94534.13;5076772;28;20597;-68
2024/01/14 10:27:00;;;;;;;45.20;40.78;;;;;;;4.14;42.74;94526.66;5060006;28;20196;-68
2024/01/14 10:29:27;;;;;;;43.83;39.42;;;;;;;3.96;43.13;94525.88;5076372;28;20259;-68
2024/01/14 10:31:53;;;;;;;43.40;39.10;;;;;;;3.92;43.75;94521.38;5075795;28;20672;-68
2024/01/14 10:34:20;;;;;;;44.08;39.55;;;;;;;3.90;43.56;94524.44;5076064;28;20201;-68
2024/01/14 10:36:48;;;;;;;41.33;37.33;;;;;;;3.93;43.68;94515.63;5076293;28;20207;-67
2024/01/14 10:39:15;;;;;;;40.53;36.58;;;;;;;3.91;43.54;94508.88;5059730;28;20203;-67
2024/01/14 10:41:42;;;;;;;41.83;37.72;;;;;;;3.99;43.39;94497.13;5059451;28;20193;-67
2024/01/14 10:44:12;;;;;;;40.95;36.78;;;;;;;4.17;42.89;94495.16;5059785;28;20197;-67
2024/01/14 10:46:41;;;;;;;39.38;35.53;;;;;;;4.29;42.89;94490.63;5076258;28;20197;-67
2024/01/14 10:49:09;;;;;;;39.20;35.40;;;;;;;4.31;42.50;94482.88;5075698;28;20259;-67
2024/01/14 10:51:40;;;;;;;40.42;36.45;;;;;;;4.32;43.04;94484.50;5059168;28;20220;-67
2024/01/14 10:54:14;;;;;;;38.75;34.80;;;;;;;4.19;42.41;94479.25;5058974;28;20624;-67
2024/01/14 10:56:48;;;;;;;39.47;35.25;;;;;;;3.99;42.91;94484.28;5059280;28;20283;-67
2024/01/14 10:59:17;;;;;;;38.47;34.63;;;;;;;3.82;42.92;94478.88;5058689;28;20200;-67
2024/01/14 11:01:49;;;;;;;39.47;35.60;;;;;;;3.59;43.47;94481.81;5076467;28;20233;-67
2024/01/14 11:04:18;;;;;;;39.10;35.10;;;;;;;3.41;43.70;94469.31;5075439;28;20201;-68
2024/01/14 11:06:45;;;;;;;36.75;32.95;;;;;;;3.25;44.21;94457.31;5076490;28;20289;-67
2024/01/14 11:09:13;;;;;;;36.90;33.20;;;;;;;3.06;44.57;94452.97;5058891;28;20205;-67
2024/01/14 11:11:47;;;;;;;38.13;33.55;;;;;;;3.01;44.66;94457.78;5075511;28;20641;-67
2024/01/14 11:14:21;;;;;;;36.45;32.63;;;;;;;3.20;45.02;94457.47;5075167;28;20208;-68
2024/01/14 11:16:55;;;;;;;35.55;32.03;;;;;;;3.56;45.62;94462.56;5075084;28;20620;-68
2024/01/14 11:19:25;;;;;;;35.97;32.67;;;;;;;3.99;44.78;94453.47;5058489;28;20218;-67